createdAt,value
2022-12-14T00:01:19.379Z,1.90
2022-12-14T00:04:21.098Z,1.83
2022-12-14T00:07:22.966Z,1.88
2022-12-14T00:10:24.912Z,1.60
2022-12-14T00:13:26.678Z,1.63
2022-12-14T00:16:30.604Z,1.50
2022-12-14T00:19:32.543Z,1.40
2022-12-14T00:22:34.409Z,1.35
2022-12-14T00:25:36.483Z,1.60
2022-12-14T00:28:38.219Z,1.30
2022-12-14T00:31:40.125Z,1.70
2022-12-14T00:34:41.944Z,1.33
2022-12-14T00:37:43.968Z,1.60
2022-12-14T00:40:51.070Z,1.20
2022-12-14T00:43:52.785Z,1.50
2022-12-14T00:46:54.560Z,1.50
2022-12-14T00:49:56.538Z,1.63
2022-12-14T00:52:58.274Z,1.20
2022-12-14T00:56:06.001Z,1.40
2022-12-14T00:59:07.722Z,1.60
2022-12-14T01:02:09.643Z,1.60
2022-12-14T01:05:11.550Z,1.25
2022-12-14T01:08:14.199Z,1.40
2022-12-14T01:11:16.450Z,1.30
2022-12-14T01:14:19.421Z,1.20
2022-12-14T01:17:21.148Z,1.40
2022-12-14T01:20:23.090Z,1.30
2022-12-14T01:23:25.045Z,1.25
2022-12-14T01:26:28.543Z,1.02
2022-12-14T01:29:30.272Z,1.40
2022-12-14T01:32:32.320Z,1.23
2022-12-14T01:35:34.132Z,1.30
2022-12-14T01:38:35.954Z,1.17
2022-12-14T01:41:40.091Z,1.10
2022-12-14T01:44:53.597Z,1.10
2022-12-14T01:48:01.269Z,1.23
2022-12-14T01:51:03.198Z,0.98
2022-12-14T01:54:08.090Z,1.15
2022-12-14T01:57:11.419Z,1.13
2022-12-14T02:00:13.520Z,1.00
2022-12-14T02:03:19.856Z,1.00
2022-12-14T02:06:26.278Z,1.15
2022-12-14T02:09:31.488Z,1.20
2022-12-14T02:12:38.299Z,1.02
2022-12-14T02:15:40.254Z,1.20
2022-12-14T02:18:41.975Z,1.08
2022-12-14T02:22:03.421Z,1.20
2022-12-14T02:25:28.891Z,0.88
2022-12-14T02:28:54.560Z,1.00
2022-12-14T02:32:10.348Z,1.15
2022-12-14T02:35:18.950Z,1.10
2022-12-14T02:38:30.802Z,0.85
2022-12-14T02:41:39.709Z,0.93
2022-12-14T02:44:51.111Z,1.08
2022-12-14T02:47:59.549Z,1.08
2022-12-14T02:51:07.627Z,1.00
2022-12-14T02:54:13.889Z,1.05
2022-12-14T02:57:21.601Z,0.88
2022-12-14T03:00:24.008Z,1.10
2022-12-14T03:03:26.404Z,1.15
2022-12-14T03:06:28.555Z,0.98
2022-12-14T03:09:31.790Z,0.90
2022-12-14T03:12:33.808Z,0.80
2022-12-14T03:15:37.889Z,1.05
2022-12-14T03:18:43.567Z,1.17
2022-12-14T03:21:50.186Z,1.00
2022-12-14T03:24:57.619Z,1.00
2022-12-14T03:28:04.472Z,0.90
2022-12-14T03:31:11.616Z,0.80
2022-12-14T03:34:16.137Z,1.10
2022-12-14T03:37:23.956Z,1.00
2022-12-14T03:40:30.439Z,1.10
2022-12-14T03:43:36.262Z,0.90
2022-12-14T03:46:43.087Z,0.80
2022-12-14T03:49:57.116Z,1.15
2022-12-14T03:53:02.523Z,0.93
2022-12-14T03:56:09.012Z,0.73
2022-12-14T03:59:15.202Z,0.93
2022-12-14T04:02:25.292Z,1.10
2022-12-14T04:05:34.370Z,1.00
2022-12-14T04:08:41.636Z,1.10
2022-12-14T04:12:03.336Z,0.90
2022-12-14T04:15:25.733Z,0.93
2022-12-14T04:18:45.944Z,1.10
2022-12-14T04:21:53.945Z,0.93
2022-12-14T04:25:14.688Z,0.80
2022-12-14T04:28:35.144Z,0.90
2022-12-14T04:31:41.501Z,0.80
2022-12-14T04:34:46.190Z,0.90
2022-12-14T04:37:50.753Z,0.88
2022-12-14T04:40:55.250Z,0.80
2022-12-14T04:43:59.773Z,0.90
2022-12-14T04:47:03.794Z,1.15
2022-12-14T04:50:11.830Z,0.90
2022-12-14T04:53:17.876Z,0.68
2022-12-14T04:56:24.282Z,0.82
2022-12-14T04:59:26.600Z,1.00
2022-12-14T05:02:42.385Z,0.88
2022-12-14T05:05:58.543Z,1.00
2022-12-14T05:09:10.642Z,0.90
2022-12-14T05:12:17.629Z,0.90
2022-12-14T05:15:24.073Z,1.00
2022-12-14T05:18:26.005Z,0.98
2022-12-14T05:21:42.723Z,0.85
2022-12-14T05:24:44.776Z,0.90
2022-12-14T05:27:46.470Z,0.98
2022-12-14T05:30:49.189Z,0.88
2022-12-14T05:33:51.247Z,0.90
2022-12-14T05:36:53.725Z,0.82
2022-12-14T05:39:55.709Z,1.00
2022-12-14T05:43:04.575Z,0.80
2022-12-14T05:46:06.514Z,0.98
2022-12-14T05:49:08.376Z,0.80
2022-12-14T05:52:10.154Z,0.80
2022-12-14T05:55:12.133Z,0.77
2022-12-14T05:58:13.957Z,0.80
2022-12-14T06:01:19.416Z,0.77
2022-12-14T06:04:21.796Z,0.75
2022-12-14T06:07:27.685Z,0.80
2022-12-14T06:10:30.317Z,0.98
2022-12-14T06:13:32.035Z,1.02
2022-12-14T06:16:34.227Z,0.98
2022-12-14T06:19:35.993Z,1.17
2022-12-14T06:22:41.551Z,1.00
2022-12-14T06:25:52.734Z,0.70
2022-12-14T06:28:55.321Z,0.82
2022-12-14T06:31:57.120Z,0.85
2022-12-14T06:34:58.986Z,1.20
2022-12-14T06:38:00.830Z,0.80
2022-12-14T06:41:07.332Z,0.90
2022-12-14T06:44:12.039Z,0.73
2022-12-14T06:47:13.888Z,0.80
2022-12-14T06:50:15.631Z,0.90
2022-12-14T06:53:17.427Z,0.90
2022-12-14T06:56:21.274Z,0.93
2022-12-14T06:59:23.102Z,1.08
2022-12-14T07:02:25.378Z,1.05
2022-12-14T07:05:27.381Z,1.20
2022-12-14T07:08:31.089Z,1.02
2022-12-14T07:11:33.348Z,0.80
2022-12-14T07:14:35.169Z,0.90
2022-12-14T07:17:37.224Z,0.90
2022-12-14T07:20:38.997Z,0.85
2022-12-14T07:23:42.031Z,0.95
2022-12-14T07:26:44.138Z,1.05
2022-12-14T07:29:45.903Z,0.90
2022-12-14T07:32:47.776Z,0.90
2022-12-14T07:35:50.153Z,1.15
2022-12-14T07:38:53.175Z,0.90
2022-12-14T07:41:55.460Z,1.17
2022-12-14T07:45:00.272Z,1.02
2022-12-14T07:48:02.105Z,1.13
2022-12-14T07:51:06.973Z,1.20
2022-12-14T07:54:08.953Z,1.13
2022-12-14T07:57:11.294Z,0.95
2022-12-14T08:00:13.565Z,1.08
2022-12-14T08:03:15.404Z,1.00
2022-12-14T08:06:18.722Z,1.13
2022-12-14T08:09:20.480Z,1.15
2022-12-14T08:12:22.957Z,1.17
2022-12-14T08:15:24.921Z,1.10
2022-12-14T08:18:26.801Z,1.35
2022-12-14T08:21:28.744Z,1.05
2022-12-14T08:24:30.531Z,1.50
2022-12-14T08:27:32.618Z,1.25
2022-12-14T08:30:38.323Z,1.20
2022-12-14T08:33:42.211Z,1.30
2022-12-14T08:36:44.634Z,1.27
2022-12-14T08:39:49.456Z,0.98
2022-12-14T08:42:51.851Z,1.10
2022-12-14T08:45:54.310Z,1.20
2022-12-14T08:48:56.352Z,1.40
2022-12-14T08:51:58.385Z,0.93
2022-12-14T08:55:00.380Z,0.98
2022-12-14T08:58:02.617Z,1.00
2022-12-14T09:01:06.078Z,1.00
2022-12-14T09:04:08.681Z,1.17
2022-12-14T09:07:10.819Z,0.85
2022-12-14T09:10:12.830Z,1.13
2022-12-14T09:13:14.996Z,1.20
2022-12-14T09:16:19.769Z,1.20
2022-12-14T09:19:21.609Z,1.42
2022-12-14T09:22:23.408Z,1.05
2022-12-14T09:25:25.370Z,1.30
2022-12-14T09:28:27.652Z,1.23
2022-12-14T09:31:29.493Z,1.13
2022-12-14T09:34:31.471Z,1.30
2022-12-14T09:37:34.189Z,1.30
2022-12-14T09:40:36.088Z,1.02
2022-12-14T09:43:41.350Z,1.30
2022-12-14T09:46:51.858Z,1.30
2022-12-14T09:49:56.677Z,1.35
2022-12-14T09:53:01.181Z,0.90
2022-12-14T09:56:03.660Z,1.25
2022-12-14T09:59:11.162Z,1.15
2022-12-14T10:02:33.070Z,1.17
2022-12-14T10:05:51.156Z,1.10
2022-12-14T10:09:02.154Z,1.50
2022-12-14T10:12:13.718Z,1.25
2022-12-14T10:22:02.533Z,1.25
2022-12-14T10:25:07.613Z,1.40
2022-12-14T10:28:20.289Z,1.33
2022-12-14T10:31:29.796Z,1.17
2022-12-14T10:34:33.938Z,1.10
2022-12-14T10:37:40.609Z,1.30
2022-12-14T10:40:53.655Z,1.10
2022-12-14T10:44:02.199Z,1.05
2022-12-14T10:47:12.539Z,1.00
2022-12-14T10:50:20.139Z,1.00
2022-12-14T10:53:33.486Z,0.93
2022-12-14T10:56:42.144Z,1.20
2022-12-14T11:00:01.645Z,0.95
2022-12-14T11:03:15.013Z,1.00
2022-12-14T11:06:18.550Z,1.17
2022-12-14T11:09:21.144Z,0.98
2022-12-14T11:12:26.480Z,0.98
2022-12-14T11:18:58.526Z,0.90
2022-12-14T11:22:14.631Z,0.80
2022-12-14T11:25:34.056Z,1.05
2022-12-14T11:28:39.087Z,0.80
2022-12-14T11:31:45.358Z,0.90
2022-12-14T11:34:57.206Z,0.90
2022-12-14T11:37:59.683Z,0.90
2022-12-14T11:41:10.683Z,1.10
2022-12-14T11:50:34.403Z,0.90
2022-12-14T11:53:36.129Z,0.70
2022-12-14T11:56:37.996Z,0.68
2022-12-14T11:59:44.777Z,0.93
2022-12-14T12:02:49.840Z,0.70
2022-12-14T12:05:53.407Z,0.82
2022-12-14T12:08:57.573Z,0.90
2022-12-14T12:11:59.551Z,0.70
2022-12-14T12:15:01.574Z,0.60
2022-12-14T12:18:07.759Z,0.68
2022-12-14T12:21:15.052Z,0.85
2022-12-14T12:24:21.841Z,0.95
2022-12-14T12:30:52.428Z,0.60
2022-12-14T12:34:00.042Z,0.85
2022-12-14T12:40:32.385Z,0.60
2022-12-14T12:43:37.457Z,0.70
2022-12-14T12:47:22.367Z,0.63
2022-12-14T12:50:15.555Z,0.63
2022-12-14T12:53:23.800Z,0.60
2022-12-14T12:56:32.938Z,0.70
2022-12-14T12:59:37.863Z,0.63
2022-12-14T13:02:45.798Z,0.60
2022-12-14T13:05:54.916Z,0.60
2022-12-14T13:09:14.386Z,0.55
2022-12-14T13:12:23.467Z,0.60
2022-12-14T13:15:29.042Z,0.52
2022-12-14T13:18:57.704Z,0.57
2022-12-14T13:22:03.344Z,0.60
2022-12-14T13:25:15.206Z,0.57
2022-12-14T13:28:50.323Z,0.57
2022-12-14T13:31:58.991Z,0.60
2022-12-14T13:35:13.835Z,0.45
2022-12-14T13:38:36.759Z,0.70
2022-12-14T13:41:45.423Z,0.88
2022-12-14T13:44:56.370Z,0.70
2022-12-14T13:47:58.608Z,0.80
2022-12-14T13:51:04.039Z,0.77
2022-12-14T13:54:17.705Z,0.57
2022-12-14T13:57:23.923Z,0.80
2022-12-14T14:00:52.059Z,0.80
2022-12-14T14:03:55.866Z,0.80
2022-12-14T14:07:21.625Z,0.60
2022-12-14T14:17:14.793Z,0.73
2022-12-14T14:20:36.295Z,0.82
2022-12-14T14:23:38.347Z,0.80
2022-12-14T14:26:41.127Z,0.80
2022-12-14T14:33:47.573Z,0.65
2022-12-14T14:36:50.741Z,0.90
2022-12-14T14:40:10.210Z,0.73
2022-12-14T14:43:27.935Z,0.77
2022-12-14T14:46:35.253Z,0.70
2022-12-14T14:49:41.114Z,1.05
2022-12-14T14:52:59.824Z,0.95
2022-12-14T14:56:05.952Z,0.90
2022-12-14T14:59:28.322Z,0.80
2022-12-14T15:02:32.642Z,0.80
2022-12-14T15:05:44.118Z,0.90
2022-12-14T15:11:52.470Z,0.85
2022-12-14T15:15:00.163Z,1.23
2022-12-14T15:18:22.740Z,0.95
2022-12-14T15:24:40.663Z,1.20
2022-12-14T15:27:42.593Z,1.05
2022-12-14T15:30:47.040Z,1.10
2022-12-14T15:33:50.537Z,1.10
2022-12-14T15:36:53.084Z,1.13
2022-12-14T15:40:05.158Z,1.40
2022-12-14T15:43:17.689Z,1.20
2022-12-14T15:46:24.939Z,1.05
2022-12-14T15:49:26.799Z,1.27
2022-12-14T15:52:30.241Z,1.15
2022-12-14T15:55:35.890Z,1.17
2022-12-14T15:58:40.060Z,1.00
2022-12-14T16:01:47.345Z,0.90
2022-12-14T16:04:55.133Z,1.17
2022-12-14T16:07:57.898Z,1.17
2022-12-14T16:11:03.234Z,1.30
2022-12-14T16:14:19.683Z,1.13
2022-12-14T16:17:24.847Z,1.05
2022-12-14T16:20:28.816Z,1.30
2022-12-14T16:23:33.611Z,0.93
2022-12-14T16:26:37.791Z,1.08
2022-12-14T16:29:45.012Z,1.00
2022-12-14T16:32:53.497Z,1.02
2022-12-14T16:36:01.731Z,0.73
2022-12-14T16:39:06.604Z,0.88
2022-12-14T16:42:18.617Z,0.60
2022-12-14T16:46:05.219Z,0.68
2022-12-14T16:49:19.937Z,0.70
2022-12-14T16:52:25.550Z,0.60
2022-12-14T16:55:27.709Z,0.63
2022-12-14T16:58:29.670Z,0.85
2022-12-14T17:01:41.851Z,0.80
2022-12-14T17:04:43.767Z,0.65
2022-12-14T17:07:45.505Z,0.77
2022-12-14T17:10:47.534Z,0.93
2022-12-14T17:13:49.673Z,0.70
2022-12-14T17:16:59.039Z,0.70
2022-12-14T17:20:01.484Z,0.82
2022-12-14T17:23:03.962Z,0.70
2022-12-14T17:26:05.980Z,0.60
2022-12-14T17:29:17.503Z,0.80
2022-12-14T17:35:23.637Z,0.88
2022-12-14T17:38:25.423Z,0.60
2022-12-14T17:41:27.488Z,0.93
2022-12-14T17:44:29.256Z,0.90
2022-12-14T17:47:31.254Z,0.95
2022-12-14T17:50:33.221Z,1.00
2022-12-14T17:53:35.877Z,0.85
2022-12-14T17:56:37.927Z,0.98
2022-12-14T17:59:40.911Z,1.02
2022-12-14T18:02:46.570Z,1.15
2022-12-14T18:05:49.630Z,1.13
2022-12-14T18:08:51.388Z,1.27
2022-12-14T18:12:21.752Z,1.30
2022-12-14T18:15:18.864Z,1.30
2022-12-14T18:18:22.256Z,0.90
2022-12-14T18:21:25.520Z,1.27
2022-12-14T18:24:27.969Z,1.40
2022-12-14T18:27:29.962Z,1.00
2022-12-14T18:30:40.543Z,1.38
2022-12-14T18:33:44.617Z,0.93
2022-12-14T18:36:46.327Z,1.13
2022-12-14T18:39:49.398Z,1.00
2022-12-14T18:42:51.858Z,0.88
2022-12-14T18:45:54.896Z,0.77
2022-12-14T18:48:56.625Z,0.63
2022-12-14T18:51:58.364Z,0.80
2022-12-14T18:55:00.105Z,0.70
2022-12-14T18:58:02.705Z,0.90
2022-12-14T19:01:04.741Z,0.60
2022-12-14T19:04:06.815Z,0.73
2022-12-14T19:07:08.552Z,0.50
2022-12-14T19:10:15.044Z,0.60
2022-12-14T19:13:25.382Z,0.55
2022-12-14T19:16:27.945Z,0.63
2022-12-14T19:19:36.751Z,0.73
2022-12-14T19:22:42.883Z,0.55
2022-12-14T19:25:44.665Z,0.43
2022-12-14T19:28:46.718Z,0.50
2022-12-14T19:31:53.895Z,0.52
2022-12-14T19:34:56.201Z,0.45
2022-12-14T19:37:58.105Z,0.50
2022-12-14T19:41:02.105Z,0.47
2022-12-14T19:44:04.335Z,0.77
2022-12-14T19:47:07.154Z,0.50
2022-12-14T19:50:09.082Z,0.55
2022-12-14T19:53:10.818Z,0.68
2022-12-14T19:56:15.997Z,0.70
2022-12-14T19:59:18.031Z,0.47
2022-12-14T20:02:20.076Z,0.60
2022-12-14T20:05:22.204Z,0.68
2022-12-14T20:08:24.804Z,0.70
2022-12-14T20:11:26.832Z,0.60
2022-12-14T20:14:28.823Z,0.90
2022-12-14T20:17:30.648Z,0.60
2022-12-14T20:20:32.440Z,0.90
2022-12-14T20:23:35.399Z,0.90
2022-12-14T20:26:37.576Z,0.90
2022-12-14T20:29:39.833Z,0.93
2022-12-14T20:32:41.762Z,1.10
2022-12-14T20:35:43.648Z,0.98
2022-12-14T20:38:45.678Z,0.70
2022-12-14T20:41:51.502Z,0.93
2022-12-14T20:44:53.632Z,1.00
2022-12-14T20:47:55.436Z,0.93
2022-12-14T20:51:00.201Z,0.82
2022-12-14T20:54:02.235Z,0.70
2022-12-14T20:57:04.102Z,0.90
2022-12-14T21:00:07.020Z,0.82
2022-12-14T21:03:09.244Z,0.75
2022-12-14T21:06:11.235Z,0.80
2022-12-14T21:09:13.041Z,0.90
2022-12-14T21:12:21.944Z,0.88
2022-12-14T21:15:24.013Z,0.90
2022-12-14T21:18:25.876Z,0.70
2022-12-14T21:21:27.664Z,0.80
2022-12-14T21:25:02.508Z,0.82
2022-12-14T21:27:51.164Z,1.08
2022-12-14T21:30:53.097Z,0.80
2022-12-14T21:33:55.247Z,0.80
2022-12-14T21:36:57.113Z,0.70
2022-12-14T21:40:02.122Z,0.90
2022-12-14T21:43:03.813Z,0.75
2022-12-14T21:46:08.143Z,0.80
2022-12-14T21:49:10.297Z,0.73
2022-12-14T21:52:13.595Z,0.90
2022-12-14T21:55:15.354Z,0.60
2022-12-14T21:58:17.326Z,0.70
2022-12-14T22:01:19.424Z,0.80
2022-12-14T22:04:22.057Z,0.90
2022-12-14T22:07:25.867Z,0.75
2022-12-14T22:10:27.678Z,0.57
2022-12-14T22:13:29.923Z,0.80
2022-12-14T22:16:33.749Z,0.63
2022-12-14T22:19:35.654Z,0.60
2022-12-14T22:22:37.485Z,0.50
2022-12-14T22:25:39.294Z,0.43
2022-12-14T22:28:41.012Z,0.60
2022-12-14T22:31:43.325Z,0.50
2022-12-14T22:34:45.273Z,0.40
2022-12-14T22:37:47.122Z,0.50
2022-12-14T22:40:48.845Z,0.50
2022-12-14T22:43:54.417Z,0.50
2022-12-14T22:46:56.914Z,0.32
2022-12-14T22:49:58.670Z,0.30
2022-12-14T22:53:00.379Z,0.40
2022-12-14T22:56:06.651Z,0.40
2022-12-14T22:59:12.203Z,0.45
2022-12-14T23:02:14.520Z,0.40
2022-12-14T23:05:16.970Z,0.57
2022-12-14T23:08:18.833Z,0.30
2022-12-14T23:11:35.248Z,0.45
2022-12-14T23:14:49.433Z,0.47
2022-12-14T23:18:08.754Z,0.47
2022-12-14T23:21:25.271Z,0.45
2022-12-14T23:24:39.449Z,0.50
2022-12-14T23:27:55.847Z,0.40
2022-12-14T23:31:09.541Z,0.60
2022-12-14T23:34:26.303Z,0.50
2022-12-14T23:37:39.568Z,0.68
2022-12-14T23:40:55.947Z,0.50
2022-12-14T23:44:09.491Z,0.60
2022-12-14T23:47:25.939Z,0.45
2022-12-14T23:50:39.570Z,0.63
2022-12-14T23:53:55.964Z,0.55
2022-12-14T23:57:09.504Z,0.60
